This is the latest recevied weather packets stored in our database for station/object KD5UMO-1. If no packets are shown the sender has not sent any weather packets the latest 10 day(s).
| Time | Temp. | Humidity | Pressure | Rain* | Wind** | Luminosity | Snow |
|---|---|---|---|---|---|---|---|
| 1777340444 | 25° C | 74% | 1009.5 hPa | 0 mm | - | 0 W/m² | - |
| 1777340141 | 25° C | 72% | 1009.4 hPa | 0 mm | - | 0 W/m² | - |
| 1777339837 | 25° C | 73% | 1009.2 hPa | 0 mm | - | 0 W/m² | - |
| 1777339536 | 25° C | 81% | 1009.1 hPa | 0 mm | - | 0 W/m² | - |
| 1777339233 | 26.11° C | 79% | 1009.2 hPa | 0 mm | - | 0 W/m² | - |
| 1777338931 | 27.22° C | 77% | 1009.4 hPa | 0 mm | - | 1 W/m² | - |
| 1777338627 | 27.78° C | 73% | 1008.5 hPa | 0 mm | - | 2 W/m² | - |
| 1777338325 | 27.78° C | 72% | 1008.6 hPa | 0 mm | - | 7 W/m² | - |
| 1777338021 | 27.22° C | 74% | 1008.2 hPa | 0 mm | - | 18 W/m² | - |
| 1777337717 | 27.22° C | 74% | 1008.1 hPa | 0 mm | - | 22 W/m² | - |
| 1777337415 | 27.78° C | 74% | 1008.3 hPa | 0 mm | - | 30 W/m² | - |
| 1777337112 | 28.89° C | 73% | 1008.3 hPa | 0 mm | - | 40 W/m² | - |
| 1777336809 | 31.11° C | 65% | 1008.2 hPa | 0 mm | - | 60 W/m² | - |
| 1777336509 | 31.11° C | 63% | 1007.7 hPa | 0 mm | - | 92 W/m² | - |
| 1777336205 | 31.11° C | 64% | 1007.6 hPa | 0 mm | - | 102 W/m² | - |
| 1777335903 | 31.67° C | 63% | 1007.7 hPa | 0 mm | - | 64 W/m² | - |
| 1777335599 | 31.67° C | 62% | 1007.6 hPa | 0 mm | - | 65 W/m² | - |
| 1777335297 | 32.22° C | 61% | 1007.6 hPa | 0 mm | - | 82 W/m² | - |
| 1777334994 | 32.78° C | 58% | 1007.5 hPa | 0 mm | - | 72 W/m² | - |
| 1777334691 | 32.78° C | 56% | 1007.7 hPa | 0 mm | - | 108 W/m² | - |
| 1777334389 | 32.78° C | 56% | 1007.5 hPa | 0 mm | - | 124 W/m² | - |
| 1777334085 | 32.78° C | 56% | 1007.7 hPa | 0 mm | - | 127 W/m² | - |
| 1777333780 | 32.78° C | 56% | 1007.8 hPa | 0 mm | - | 146 W/m² | - |
| 1777333477 | 33.33° C | 54% | 1008 hPa | 0 mm | - | 146 W/m² | - |
| 1777333174 | 33.33° C | 47% | 1008.1 hPa | 0 mm | - | 157 W/m² | - |
* Rain latest hour (hover to see other rain measurements)
** Current wind speed in m/s (hover to see current wind gust speed)